Time;durP1;ratioP1;P1;durP2;ratioP2;P2;SDS_P1;SDS_P2;PMS_P1;PMS_P2;Temp;Humidity;BMP_temperature;BMP_pressure;BME280_temperature;BME280_humidity;BME280_pressure;Samples;Min_cycle;Max_cycle;Signal;HPM_P1;HPM_P2
2022/05/03 00:00:26;;;;;;;;;;;;;;;;;;5030579;28;20382;-55
2022/05/03 00:03:03;;;;;;;;;;;;;;;;;;5028127;28;19918;-56
2022/05/03 00:05:47;;;;;;;;;;;;;;;;;;5028086;28;19935;-56
2022/05/03 00:08:22;;;;;;;;;;;;;;;;;;5028866;28;19999;-56
2022/05/03 00:11:02;;;;;;;;;;;;;;;;;;5029470;28;19917;-56
2022/05/03 00:13:29;;;;;;;;;;;;;;;;;;5027783;28;20020;-56
2022/05/03 00:15:55;;;;;;;;;;;;;;;;;;5028442;28;20048;-56
2022/05/03 00:18:21;;;;;;;;;;;;;;;;;;5028143;28;19917;-56
2022/05/03 00:20:48;;;;;;;;;;;;;;;;;;5026774;28;20421;-56
2022/05/03 00:23:14;;;;;;;;;;;;;;;;;;5029020;28;20354;-56
2022/05/03 00:25:39;;;;;;;;;;;;;;;;;;5026617;28;19916;-55
2022/05/03 00:28:05;;;;;;;;;;;;;;;;;;5028602;28;19933;-57
2022/05/03 00:30:31;;;;;;;;;;;;;;;;;;5030794;28;19917;-56
2022/05/03 00:32:56;;;;;;;;;;;;;;;;;;5027102;28;20359;-55
2022/05/03 00:35:23;;;;;;;;;;;;;;;;;;5026624;28;19917;-56
2022/05/03 00:37:49;;;;;;;;;;;;;;;;;;5033643;28;19944;-55
2022/05/03 00:40:17;;;;;;;;;;;;;;;;;;5030055;28;19917;-56
2022/05/03 00:43:01;;;;;;;;;;;;;;;;;;5029438;28;19956;-55
2022/05/03 00:45:45;;;;;;;;;;;;;;;;;;5031158;28;19917;-55
2022/05/03 00:48:16;;;;;;;;;;;;;;;;;;5030810;28;19917;-56
2022/05/03 00:50:43;;;;;;;;;;;;;;;;;;5025777;28;20295;-55
2022/05/03 00:53:12;;;;;;;;;;;;;;;;;;5031399;28;19925;-56
2022/05/03 00:56:03;;;;;;;;;;;;;;;;;;5028060;28;19924;-56
2022/05/03 00:58:48;;;;;;;;;;;;;;;;;;5026061;28;19921;-55
2022/05/03 01:01:37;;;;;;;;;;;;;;;;;;5031849;28;19974;-56
2022/05/03 01:04:12;;;;;;;;;;;;;;;;;;5024287;28;19925;-55
2022/05/03 01:06:52;;;;;;;;;;;;;;;;;;5026944;28;19917;-57
2022/05/03 01:09:23;;;;;;;;;;;;;;;;;;5032533;28;20324;-56
2022/05/03 01:12:07;;;;;;;;;;;;;;;;;;5024940;28;19925;-56
2022/05/03 01:15:02;;;;;;;;;;;;;;;;;;5024407;28;19917;-57
2022/05/03 01:17:28;;;;;;;;;;;;;;;;;;5025049;28;19924;-56
2022/05/03 01:19:53;;;;;;;;;;;;;;;;;;5024158;28;19925;-56
2022/05/03 01:22:38;;;;;;;;;;;;;;;;;;5026055;28;20449;-56
2022/05/03 01:25:04;;;;;;;;;;;;;;;;;;5003757;28;19920;-56
2022/05/03 01:27:44;;;;;;;;;;;;;;;;;;5028900;28;19923;-56
2022/05/03 01:30:11;;;;;;;;;;;;;;;;;;5030183;28;20011;-56
2022/05/03 01:32:38;;;;;;;;;;;;;;;;;;5029785;28;20268;-56
2022/05/03 01:35:06;;;;;;;;;;;;;;;;;;5029354;28;20003;-56
2022/05/03 01:37:43;;;;;;;;;;;;;;;;;;5029869;28;19920;-56
2022/05/03 01:40:12;;;;;;;;;;;;;;;;;;5023151;28;19963;-56
2022/05/03 01:42:56;;;;;;;;;;;;;;;;;;5029503;28;19917;-56
2022/05/03 01:45:28;;;;;;;;;;;;;;;;;;5025728;28;19917;-56
2022/05/03 01:48:11;;;;;;;;;;;;;;;;;;5023634;28;19943;-55
2022/05/03 01:50:37;;;;;;;;;;;;;;;;;;5028107;28;19920;-55
2022/05/03 01:53:18;;;;;;;;;;;;;;;;;;5030318;28;20016;-57
2022/05/03 01:55:49;;;;;;;;;;;;;;;;;;5031058;28;19928;-55
2022/05/03 01:58:33;;;;;;;;;;;;;;;;;;5026046;28;20374;-55
2022/05/03 02:01:03;;;;;;;;;;;;;;;;;;5025234;28;19956;-55
2022/05/03 02:03:30;;;;;;;;;;;;;;;;;;5030561;28;19924;-55
2022/05/03 02:06:01;;;;;;;;;;;;;;;;;;5025648;28;19961;-56
2022/05/03 02:08:45;;;;;;;;;;;;;;;;;;5028890;28;19936;-56
2022/05/03 02:11:22;;;;;;;;;;;;;;;;;;5027530;28;19924;-56
2022/05/03 02:16:41;;;;;;;;;;;;;;;;;;5024920;28;19928;-55
2022/05/03 02:19:27;;;;;;;;;;;;;;;;;;5020888;28;19960;-56
2022/05/03 02:22:02;;;;;;;;;;;;;;;;;;5022414;28;19971;-56
2022/05/03 02:24:32;;;;;;;;;;;;;;;;;;5025378;28;20351;-56
2022/05/03 02:27:03;;;;;;;;;;;;;;;;;;5023443;28;20007;-55
2022/05/03 02:29:35;;;;;;;;;;;;;;;;;;5024138;28;19945;-55
2022/05/03 02:32:04;;;;;;;;;;;;;;;;;;5027635;28;19932;-55
2022/05/03 02:34:33;;;;;;;;;;;;;;;;;;5032714;28;20506;-55
2022/05/03 02:36:59;;;;;;;;;;;;;;;;;;5028156;28;20297;-55
2022/05/03 02:39:26;;;;;;;;;;;;;;;;;;5028173;28;20417;-56
2022/05/03 02:41:54;;;;;;;;;;;;;;;;;;5027525;28;20320;-56
2022/05/03 02:44:20;;;;;;;;;;;;;;;;;;5028353;28;19940;-56
2022/05/03 02:46:55;;;;;;;;;;;;;;;;;;5026709;28;19960;-55
2022/05/03 02:49:20;;;;;;;;;;;;;;;;;;5027152;28;19978;-56
2022/05/03 02:51:52;;;;;;;;;;;;;;;;;;5026018;28;20379;-55
2022/05/03 02:54:18;;;;;;;;;;;;;;;;;;5023331;28;20059;-55
2022/05/03 02:56:51;;;;;;;;;;;;;;;;;;5025523;28;20004;-55
2022/05/03 02:59:23;;;;;;;;;;;;;;;;;;5033477;28;20028;-55
2022/05/03 03:02:00;;;;;;;;;;;;;;;;;;5025611;28;20004;-55
2022/05/03 03:04:25;;;;;;;;;;;;;;;;;;5023795;28;20134;-55
2022/05/03 03:06:53;;;;;;;;;;;;;;;;;;5027021;28;19928;-55
2022/05/03 03:09:24;;;;;;;;;;;;;;;;;;5026262;28;20256;-55
2022/05/03 03:12:01;;;;;;;;;;;;;;;;;;5022340;28;20419;-54
2022/05/03 03:14:33;;;;;;;;;;;;;;;;;;5025800;28;19921;-55
2022/05/03 03:17:05;;;;;;;;;;;;;;;;;;5022556;28;20055;-57
2022/05/03 03:19:49;;;;;;;;;;;;;;;;;;5023439;28;20345;-55
2022/05/03 03:22:14;;;;;;;;;;;;;;;;;;5023892;28;19921;-56
2022/05/03 03:24:40;;;;;;;;;;;;;;;;;;5026566;28;19917;-55
2022/05/03 03:27:08;;;;;;;;;;;;;;;;;;5029562;28;19921;-55
2022/05/03 03:29:33;;;;;;;;;;;;;;;;;;5025673;28;19917;-55
2022/05/03 03:32:00;;;;;;;;;;;;;;;;;;5027845;28;20012;-55
2022/05/03 03:34:27;;;;;;;;;;;;;;;;;;5028500;28;19917;-55
2022/05/03 03:36:53;;;;;;;;;;;;;;;;;;5027569;28;19995;-55
2022/05/03 03:39:18;;;;;;;;;;;;;;;;;;5029235;28;19917;-55
2022/05/03 03:41:47;;;;;;;;;;;;;;;;;;5030797;28;19974;-55
2022/05/03 03:44:13;;;;;;;;;;;;;;;;;;5031545;28;19917;-56
2022/05/03 03:46:38;;;;;;;;;;;;;;;;;;5030727;28;20002;-55
2022/05/03 03:49:04;;;;;;;;;;;;;;;;;;5033080;28;19921;-54
2022/05/03 03:51:29;;;;;;;;;;;;;;;;;;5027824;28;20352;-54
2022/05/03 03:53:55;;;;;;;;;;;;;;;;;;5028473;28;19917;-56
2022/05/03 03:56:21;;;;;;;;;;;;;;;;;;5031614;28;19931;-54
2022/05/03 03:58:47;;;;;;;;;;;;;;;;;;5031847;28;20290;-55
2022/05/03 04:01:12;;;;;;;;;;;;;;;;;;5025704;28;19917;-54
2022/05/03 04:03:38;;;;;;;;;;;;;;;;;;5027940;28;19917;-55
2022/05/03 04:06:03;;;;;;;;;;;;;;;;;;5028075;28;19960;-54
2022/05/03 04:08:29;;;;;;;;;;;;;;;;;;5030375;28;19913;-55
2022/05/03 04:10:54;;;;;;;;;;;;;;;;;;5027376;28;19917;-56
2022/05/03 04:13:19;;;;;;;;;;;;;;;;;;5025131;28;19918;-55
2022/05/03 04:15:45;;;;;;;;;;;;;;;;;;5025098;28;19952;-55
2022/05/03 04:18:10;;;;;;;;;;;;;;;;;;5028654;28;20367;-55
2022/05/03 04:20:35;;;;;;;;;;;;;;;;;;5028381;28;19924;-57
2022/05/03 04:23:01;;;;;;;;;;;;;;;;;;5029852;28;19946;-55
2022/05/03 04:25:26;;;;;;;;;;;;;;;;;;5025261;28;20060;-55
2022/05/03 04:27:52;;;;;;;;;;;;;;;;;;5029631;28;20028;-55
2022/05/03 04:30:17;;;;;;;;;;;;;;;;;;5031071;28;19932;-55
2022/05/03 04:32:43;;;;;;;;;;;;;;;;;;5030879;28;20056;-55
2022/05/03 04:35:09;;;;;;;;;;;;;;;;;;5029385;28;19971;-56
2022/05/03 04:37:34;;;;;;;;;;;;;;;;;;5030173;28;19921;-56
2022/05/03 04:39:59;;;;;;;;;;;;;;;;;;5029963;28;20378;-56
2022/05/03 04:42:25;;;;;;;;;;;;;;;;;;5027920;28;19917;-54
2022/05/03 04:44:50;;;;;;;;;;;;;;;;;;5034187;28;19921;-54
2022/05/03 04:47:15;;;;;;;;;;;;;;;;;;5030571;28;19963;-56
2022/05/03 04:49:41;;;;;;;;;;;;;;;;;;5027583;28;19917;-54
2022/05/03 04:52:06;;;;;;;;;;;;;;;;;;5029069;28;19968;-55
2022/05/03 04:54:31;;;;;;;;;;;;;;;;;;5028035;28;19917;-55
2022/05/03 04:56:58;;;;;;;;;;;;;;;;;;5029889;28;20008;-55
2022/05/03 04:59:23;;;;;;;;;;;;;;;;;;5029377;28;20425;-54
2022/05/03 05:01:49;;;;;;;;;;;;;;;;;;5026565;28;19921;-55
2022/05/03 05:04:15;;;;;;;;;;;;;;;;;;5024398;28;19921;-54
2022/05/03 05:06:40;;;;;;;;;;;;;;;;;;5028300;28;19928;-58
2022/05/03 05:09:05;;;;;;;;;;;;;;;;;;5027125;28;19917;-58
2022/05/03 05:11:31;;;;;;;;;;;;;;;;;;5026384;28;19940;-57
2022/05/03 05:13:56;;;;;;;;;;;;;;;;;;5027342;28;20063;-58
2022/05/03 05:16:24;;;;;;;;;;;;;;;;;;5026418;28;19917;-58
2022/05/03 05:18:49;;;;;;;;;;;;;;;;;;5030932;28;19917;-58
2022/05/03 05:21:15;;;;;;;;;;;;;;;;;;5027654;28;19917;-58
2022/05/03 05:23:40;;;;;;;;;;;;;;;;;;5025944;28;19917;-58
2022/05/03 05:26:05;;;;;;;;;;;;;;;;;;5027718;28;19967;-57
2022/05/03 05:28:31;;;;;;;;;;;;;;;;;;5030282;28;20011;-58
2022/05/03 05:30:56;;;;;;;;;;;;;;;;;;5034026;28;19941;-58
2022/05/03 05:33:22;;;;;;;;;;;;;;;;;;5030758;28;19975;-57
2022/05/03 05:35:48;;;;;;;;;;;;;;;;;;5026982;28;19925;-57
2022/05/03 05:38:14;;;;;;;;;;;;;;;;;;5026448;28;19978;-58
2022/05/03 05:40:39;;;;;;;;;;;;;;;;;;5026022;28;20003;-58
2022/05/03 05:43:05;;;;;;;;;;;;;;;;;;5022244;28;20004;-57
2022/05/03 05:45:30;;;;;;;;;;;;;;;;;;5027636;28;19913;-58
2022/05/03 05:47:56;;;;;;;;;;;;;;;;;;5024555;28;19917;-58
2022/05/03 05:50:22;;;;;;;;;;;;;;;;;;5025042;28;19947;-58
2022/05/03 05:55:31;;;;;;;;;;;;;;;;;;5017318;28;19926;-57
2022/05/03 05:57:56;;;;;;;;;;;;;;;;;;5022511;28;19913;-57
2022/05/03 06:00:22;;;;;;;;;;;;;;;;;;5024514;28;19924;-58
2022/05/03 06:02:47;;;;;;;;;;;;;;;;;;5020619;28;19928;-57
2022/05/03 06:05:12;;;;;;;;;;;;;;;;;;5024880;28;20101;-57
2022/05/03 06:07:38;;;;;;;;;;;;;;;;;;5027854;28;19921;-57
2022/05/03 06:10:04;;;;;;;;;;;;;;;;;;5025599;28;19917;-57
2022/05/03 06:12:29;;;;;;;;;;;;;;;;;;5025179;28;19965;-57
2022/05/03 06:14:54;;;;;;;;;;;;;;;;;;5023008;28;19931;-57
2022/05/03 06:17:20;;;;;;;;;;;;;;;;;;5026255;28;19979;-57
2022/05/03 06:19:45;;;;;;;;;;;;;;;;;;5025935;28;20389;-57
2022/05/03 06:22:10;;;;;;;;;;;;;;;;;;5018160;28;20333;-57
2022/05/03 06:24:36;;;;;;;;;;;;;;;;;;5024886;28;19976;-57
2022/05/03 06:27:01;;;;;;;;;;;;;;;;;;5027513;28;19917;-57
2022/05/03 06:29:26;;;;;;;;;;;;;;;;;;5023940;28;19945;-57
2022/05/03 06:31:52;;;;;;;;;;;;;;;;;;5023992;28;20012;-57
2022/05/03 06:34:18;;;;;;;;;;;;;;;;;;5022160;28;20016;-57
2022/05/03 06:36:43;;;;;;;;;;;;;;;;;;5022643;28;20355;-57
2022/05/03 06:39:09;;;;;;;;;;;;;;;;;;5022810;28;20421;-57
2022/05/03 06:41:34;;;;;;;;;;;;;;;;;;5022545;28;20418;-57
2022/05/03 06:44:00;;;;;;;;;;;;;;;;;;5024384;28;19921;-57
2022/05/03 06:46:25;;;;;;;;;;;;;;;;;;5021957;28;19975;-57
2022/05/03 06:48:51;;;;;;;;;;;;;;;;;;5026263;28;19917;-57
2022/05/03 06:51:16;;;;;;;;;;;;;;;;;;5025522;28;19996;-57
2022/05/03 06:53:42;;;;;;;;;;;;;;;;;;5024640;28;19921;-57
2022/05/03 06:56:07;;;;;;;;;;;;;;;;;;5020245;28;19940;-57
2022/05/03 06:58:33;;;;;;;;;;;;;;;;;;5021881;28;20306;-57
2022/05/03 07:01:05;;;;;;;;;;;;;;;;;;5025565;28;19924;-57
2022/05/03 07:03:30;;;;;;;;;;;;;;;;;;5025429;28;20012;-57
2022/05/03 07:05:56;;;;;;;;;;;;;;;;;;5026072;28;20055;-57
2022/05/03 07:08:22;;;;;;;;;;;;;;;;;;5027543;28;20192;-57
2022/05/03 07:10:47;;;;;;;;;;;;;;;;;;5023413;28;19924;-57
2022/05/03 07:13:13;;;;;;;;;;;;;;;;;;5028815;28;20287;-57
2022/05/03 07:15:38;;;;;;;;;;;;;;;;;;5023652;28;19918;-57
2022/05/03 07:23:32;;;;;;;;;;;;;;;;;;5025331;28;19924;-57
2022/05/03 07:25:58;;;;;;;;;;;;;;;;;;5026926;28;19917;-57
2022/05/03 07:28:23;;;;;;;;;;;;;;;;;;5030208;28;19921;-58
2022/05/03 07:30:49;;;;;;;;;;;;;;;;;;5028517;28;20019;-58
2022/05/03 07:33:14;;;;;;;;;;;;;;;;;;5028918;28;20007;-58
2022/05/03 07:35:40;;;;;;;;;;;;;;;;;;5025339;28;19917;-57
2022/05/03 07:38:05;;;;;;;;;;;;;;;;;;5028748;28;20075;-58
2022/05/03 07:40:30;;;;;;;;;;;;;;;;;;5029307;28;19925;-58
2022/05/03 07:42:56;;;;;;;;;;;;;;;;;;5030149;28;19957;-58
2022/05/03 07:45:21;;;;;;;;;;;;;;;;;;5026928;28;20379;-58
2022/05/03 07:47:47;;;;;;;;;;;;;;;;;;5028851;28;19917;-58
2022/05/03 07:50:12;;;;;;;;;;;;;;;;;;5027617;28;20364;-57
2022/05/03 07:52:38;;;;;;;;;;;;;;;;;;5025152;28;19926;-57
2022/05/03 07:55:05;;;;;;;;;;;;;;;;;;5024331;28;19920;-58
2022/05/03 07:57:31;;;;;;;;;;;;;;;;;;5028841;28;19917;-58
2022/05/03 07:59:57;;;;;;;;;;;;;;;;;;5028151;28;20517;-58
2022/05/03 08:02:22;;;;;;;;;;;;;;;;;;5028897;28;19917;-58
2022/05/03 08:04:48;;;;;;;;;;;;;;;;;;5028118;28;19929;-58
2022/05/03 08:07:13;;;;;;;;;;;;;;;;;;5032959;28;19924;-57
2022/05/03 08:09:39;;;;;;;;;;;;;;;;;;5026433;28;19917;-58
2022/05/03 08:12:04;;;;;;;;;;;;;;;;;;5024103;28;19929;-57
2022/05/03 08:14:30;;;;;;;;;;;;;;;;;;5023782;28;19978;-58
2022/05/03 08:16:55;;;;;;;;;;;;;;;;;;5027488;28;20028;-58
2022/05/03 08:19:21;;;;;;;;;;;;;;;;;;5027210;28;19925;-58
2022/05/03 08:21:46;;;;;;;;;;;;;;;;;;5025388;28;20006;-58
2022/05/03 08:24:12;;;;;;;;;;;;;;;;;;5023477;28;20034;-58
2022/05/03 08:26:39;;;;;;;;;;;;;;;;;;5022033;28;20230;-58
2022/05/03 08:29:04;;;;;;;;;;;;;;;;;;5029034;28;19979;-58
2022/05/03 08:31:29;;;;;;;;;;;;;;;;;;5025092;28;20007;-58
2022/05/03 08:33:55;;;;;;;;;;;;;;;;;;5026478;28;19917;-58
2022/05/03 08:36:21;;;;;;;;;;;;;;;;;;5023882;28;20236;-57
2022/05/03 08:44:14;;;;;;;;;;;;;;;;;;5023932;28;19932;-57
2022/05/03 08:46:42;;;;;;;;;;;;;;;;;;5023823;28;19918;-58
2022/05/03 08:49:12;;;;;;;;;;;;;;;;;;5026311;28;19921;-58
2022/05/03 08:51:40;;;;;;;;;;;;;;;;;;5024915;28;19928;-59
2022/05/03 08:54:06;;;;;;;;;;;;;;;;;;5022156;28;19921;-59
2022/05/03 08:56:31;;;;;;;;;;;;;;;;;;5025003;28;19924;-59
2022/05/03 08:58:56;;;;;;;;;;;;;;;;;;5023155;28;20492;-59
2022/05/03 09:01:22;;;;;;;;;;;;;;;;;;5025146;28;19923;-58
2022/05/03 09:03:47;;;;;;;;;;;;;;;;;;5025455;28;19921;-58
2022/05/03 09:06:12;;;;;;;;;;;;;;;;;;5025122;28;19917;-58
2022/05/03 09:08:39;;;;;;;;;;;;;;;;;;5026566;28;19963;-59
2022/05/03 09:11:15;;;;;;;;;;;;;;;;;;5025034;28;20363;-58
2022/05/03 09:13:40;;;;;;;;;;;;;;;;;;5024351;28;20017;-58
2022/05/03 09:16:12;;;;;;;;;;;;;;;;;;5022558;28;20008;-59
2022/05/03 09:18:39;;;;;;;;;;;;;;;;;;5029594;28;19917;-58
2022/05/03 09:24:03;;;;;;;;;;;;;;;;;;5021993;28;20007;-59
2022/05/03 09:26:29;;;;;;;;;;;;;;;;;;5021198;28;19913;-59
2022/05/03 09:29:05;;;;;;;;;;;;;;;;;;5030462;28;19928;-59
2022/05/03 09:31:30;;;;;;;;;;;;;;;;;;5026584;28;20692;-59
2022/05/03 09:34:00;;;;;;;;;;;;;;;;;;5025696;28;20024;-58
2022/05/03 09:36:26;;;;;;;;;;;;;;;;;;5028928;28;19925;-59
2022/05/03 09:38:54;;;;;;;;;;;;;;;;;;5021832;28;20016;-59
2022/05/03 09:41:19;;;;;;;;;;;;;;;;;;5029264;28;19917;-59
2022/05/03 09:44:03;;;;;;;;;;;;;;;;;;5024889;28;20417;-59
2022/05/03 09:46:29;;;;;;;;;;;;;;;;;;5022642;28;19927;-59
2022/05/03 09:48:55;;;;;;;;;;;;;;;;;;5022523;28;19921;-58
2022/05/03 09:51:21;;;;;;;;;;;;;;;;;;5023068;28;19921;-57
2022/05/03 09:53:58;;;;;;;;;;;;;;;;;;5022549;28;20418;-57
2022/05/03 09:56:25;;;;;;;;;;;;;;;;;;5029245;28;19969;-59
2022/05/03 09:58:54;;;;;;;;;;;;;;;;;;5020664;28;19967;-57
2022/05/03 10:01:20;;;;;;;;;;;;;;;;;;5019602;28;19976;-57
2022/05/03 10:03:46;;;;;;;;;;;;;;;;;;5027030;28;19924;-57
2022/05/03 10:06:11;;;;;;;;;;;;;;;;;;5024274;28;19920;-57
2022/05/03 10:08:37;;;;;;;;;;;;;;;;;;5024206;28;20418;-58
2022/05/03 10:11:03;;;;;;;;;;;;;;;;;;5021807;28;19921;-58
2022/05/03 10:13:29;;;;;;;;;;;;;;;;;;5020677;28;19929;-58
2022/05/03 10:21:28;;;;;;;;;;;;;;;;;;5017668;28;20005;-58
2022/05/03 10:24:09;;;;;;;;;;;;;;;;;;5024744;28;19931;-58
2022/05/03 10:26:52;;;;;;;;;;;;;;;;;;5020145;28;19921;-58
2022/05/03 10:29:21;;;;;;;;;;;;;;;;;;5019855;28;20016;-58
2022/05/03 10:32:03;;;;;;;;;;;;;;;;;;5022676;28;19917;-58
2022/05/03 10:34:40;;;;;;;;;;;;;;;;;;5022276;28;19925;-58
2022/05/03 10:37:16;;;;;;;;;;;;;;;;;;5023338;28;19929;-58
2022/05/03 10:39:46;;;;;;;;;;;;;;;;;;5017907;28;20299;-58
2022/05/03 10:42:12;;;;;;;;;;;;;;;;;;5022018;28;19921;-58
2022/05/03 10:44:42;;;;;;;;;;;;;;;;;;5022480;28;19928;-58
2022/05/03 10:47:08;;;;;;;;;;;;;;;;;;5021235;28;19921;-58
2022/05/03 10:49:33;;;;;;;;;;;;;;;;;;5026592;28;20412;-58
2022/05/03 10:51:58;;;;;;;;;;;;;;;;;;5021470;28;20067;-58
2022/05/03 10:54:24;;;;;;;;;;;;;;;;;;5020014;28;19928;-58
2022/05/03 10:57:07;;;;;;;;;;;;;;;;;;5022027;28;20292;-58
2022/05/03 10:59:46;;;;;;;;;;;;;;;;;;5021475;28;20271;-58
2022/05/03 11:02:11;;;;;;;;;;;;;;;;;;5021552;28;19959;-58
2022/05/03 11:04:57;;;;;;;;;;;;;;;;;;5024398;28;19960;-58
2022/05/03 11:07:25;;;;;;;;;;;;;;;;;;5024294;28;19921;-58
2022/05/03 11:09:50;;;;;;;;;;;;;;;;;;5024582;28;19964;-57
2022/05/03 11:12:16;;;;;;;;;;;;;;;;;;5024260;28;20363;-57
2022/05/03 11:14:41;;;;;;;;;;;;;;;;;;5024722;28;19971;-58
2022/05/03 11:17:10;;;;;;;;;;;;;;;;;;5023020;28;19955;-58
2022/05/03 11:19:36;;;;;;;;;;;;;;;;;;5024771;28;20343;-58
2022/05/03 11:22:08;;;;;;;;;;;;;;;;;;5021215;28;19975;-58
2022/05/03 11:24:33;;;;;;;;;;;;;;;;;;5025269;28;19917;-58
2022/05/03 11:27:00;;;;;;;;;;;;;;;;;;5024300;28;19917;-58
2022/05/03 11:29:46;;;;;;;;;;;;;;;;;;5023161;28;20002;-58
2022/05/03 11:32:12;;;;;;;;;;;;;;;;;;5018868;28;19921;-59
2022/05/03 11:34:38;;;;;;;;;;;;;;;;;;5026029;28;19913;-58
2022/05/03 11:37:03;;;;;;;;;;;;;;;;;;5024767;28;19923;-59
2022/05/03 11:39:29;;;;;;;;;;;;;;;;;;5023682;28;19913;-59
2022/05/03 11:41:54;;;;;;;;;;;;;;;;;;5025885;28;19925;-59
2022/05/03 11:44:20;;;;;;;;;;;;;;;;;;5022899;28;19913;-59
2022/05/03 11:46:47;;;;;;;;;;;;;;;;;;5024757;28;19917;-58
2022/05/03 11:49:13;;;;;;;;;;;;;;;;;;5019080;28;19922;-58
2022/05/03 11:57:08;;;;;;;;;;;;;;;;;;5023555;28;20024;-59
2022/05/03 11:59:34;;;;;;;;;;;;;;;;;;5025197;28;20035;-58
2022/05/03 12:02:14;;;;;;;;;;;;;;;;;;5025959;28;19917;-58
2022/05/03 12:04:56;;;;;;;;;;;;;;;;;;5032583;28;19923;-58
2022/05/03 12:07:21;;;;;;;;;;;;;;;;;;5026881;28;19921;-59
2022/05/03 12:09:46;;;;;;;;;;;;;;;;;;5025136;28;19923;-58
2022/05/03 12:15:35;;;;;;;;;;;;;;;;;;5026029;28;20008;-58
2022/05/03 12:18:03;;;;;;;;;;;;;;;;;;5011749;28;20449;-59
2022/05/03 12:20:41;;;;;;;;;;;;;;;;;;5023186;28;19947;-59
2022/05/03 12:23:08;;;;;;;;;;;;;;;;;;5023667;28;19999;-59
2022/05/03 12:25:33;;;;;;;;;;;;;;;;;;5031004;28;19966;-59
2022/05/03 12:28:02;;;;;;;;;;;;;;;;;;5026473;28;19913;-59
2022/05/03 12:30:27;;;;;;;;;;;;;;;;;;5018767;28;19918;-57
2022/05/03 12:32:53;;;;;;;;;;;;;;;;;;5026084;28;19928;-59
2022/05/03 12:35:27;;;;;;;;;;;;;;;;;;5030876;28;19928;-59
2022/05/03 12:37:53;;;;;;;;;;;;;;;;;;5024168;28;19943;-59
2022/05/03 12:40:25;;;;;;;;;;;;;;;;;;5024322;28;20418;-59
2022/05/03 12:42:50;;;;;;;;;;;;;;;;;;5026366;28;19925;-59
2022/05/03 12:45:19;;;;;;;;;;;;;;;;;;5024934;28;20002;-59
2022/05/03 12:47:45;;;;;;;;;;;;;;;;;;5020636;28;20450;-59
2022/05/03 12:50:10;;;;;;;;;;;;;;;;;;5024084;28;20008;-59
2022/05/03 12:52:35;;;;;;;;;;;;;;;;;;5023870;28;19929;-59
2022/05/03 12:55:01;;;;;;;;;;;;;;;;;;5026364;28;19923;-59
2022/05/03 13:00:11;;;;;;;;;;;;;;;;;;5027257;28;19955;-59
2022/05/03 13:02:37;;;;;;;;;;;;;;;;;;5025517;28;20336;-59
2022/05/03 13:05:02;;;;;;;;;;;;;;;;;;5032207;28;19963;-59
2022/05/03 13:07:28;;;;;;;;;;;;;;;;;;5027451;28;19921;-59
2022/05/03 13:09:53;;;;;;;;;;;;;;;;;;5024638;28;20287;-59
2022/05/03 13:12:18;;;;;;;;;;;;;;;;;;5025730;28;20566;-55
2022/05/03 13:14:46;;;;;;;;;;;;;;;;;;5022265;28;19928;-48
2022/05/03 13:17:13;;;;;;;;;;;;;;;;;;5021759;28;19917;-56
2022/05/03 13:19:38;;;;;;;;;;;;;;;;;;5027744;28;19927;-59
2022/05/03 13:22:04;;;;;;;;;;;;;;;;;;5019005;28;19921;-59
2022/05/03 13:24:29;;;;;;;;;;;;;;;;;;5027189;28;19917;-58
2022/05/03 13:26:55;;;;;;;;;;;;;;;;;;5026684;28;19925;-59
2022/05/03 13:29:20;;;;;;;;;;;;;;;;;;5023137;28;20024;-59
2022/05/03 13:31:46;;;;;;;;;;;;;;;;;;5024357;28;20268;-59
2022/05/03 13:34:12;;;;;;;;;;;;;;;;;;5023384;28;19953;-59
2022/05/03 13:42:06;;;;;;;;;;;;;;;;;;5025903;28;20067;-59
2022/05/03 13:44:35;;;;;;;;;;;;;;;;;;5024526;28;20019;-59
2022/05/03 13:47:01;;;;;;;;;;;;;;;;;;5023851;28;19940;-59
2022/05/03 13:49:27;;;;;;;;;;;;;;;;;;5022019;28;20386;-59
2022/05/03 13:51:52;;;;;;;;;;;;;;;;;;5023041;28;20172;-58
2022/05/03 13:54:17;;;;;;;;;;;;;;;;;;5020570;28;19999;-60
2022/05/03 13:56:43;;;;;;;;;;;;;;;;;;5021741;28;19917;-60
2022/05/03 13:59:08;;;;;;;;;;;;;;;;;;5024677;28;19966;-58
2022/05/03 14:01:34;;;;;;;;;;;;;;;;;;5024204;28;19928;-59
2022/05/03 14:04:00;;;;;;;;;;;;;;;;;;5026126;28;20400;-59
2022/05/03 14:06:25;;;;;;;;;;;;;;;;;;5025627;28;20365;-59
2022/05/03 14:08:51;;;;;;;;;;;;;;;;;;5023228;28;19917;-59
2022/05/03 14:11:16;;;;;;;;;;;;;;;;;;5021243;28;19951;-59
2022/05/03 14:13:41;;;;;;;;;;;;;;;;;;5026380;28;20293;-60
2022/05/03 14:16:07;;;;;;;;;;;;;;;;;;5025897;28;19917;-60
2022/05/03 14:18:32;;;;;;;;;;;;;;;;;;5017757;28;19918;-59
2022/05/03 14:20:57;;;;;;;;;;;;;;;;;;5020810;28;19922;-60
2022/05/03 14:23:23;;;;;;;;;;;;;;;;;;5025916;28;19945;-60
2022/05/03 14:25:48;;;;;;;;;;;;;;;;;;5025032;28;20402;-60
2022/05/03 14:28:14;;;;;;;;;;;;;;;;;;5025483;28;19931;-60
2022/05/03 14:30:39;;;;;;;;;;;;;;;;;;5021170;28;19918;-60
2022/05/03 14:33:06;;;;;;;;;;;;;;;;;;5033436;28;20349;-60
2022/05/03 14:35:33;;;;;;;;;;;;;;;;;;5024700;28;19923;-60
2022/05/03 14:37:58;;;;;;;;;;;;;;;;;;5026270;28;20028;-56
2022/05/03 14:40:24;;;;;;;;;;;;;;;;;;5028180;28;19964;-60
2022/05/03 14:42:49;;;;;;;;;;;;;;;;;;5024482;28;20341;-59
2022/05/03 14:45:17;;;;;;;;;;;;;;;;;;5028179;28;20351;-59
2022/05/03 14:47:42;;;;;;;;;;;;;;;;;;5023668;28;19956;-59
2022/05/03 14:50:08;;;;;;;;;;;;;;;;;;5025304;28;19960;-59
2022/05/03 14:52:33;;;;;;;;;;;;;;;;;;5021381;28;19933;-59
2022/05/03 14:54:58;;;;;;;;;;;;;;;;;;5026449;28;19963;-59
2022/05/03 15:02:54;;;;;;;;;;;;;;;;;;5025418;28;20021;-59
2022/05/03 15:05:33;;;;;;;;;;;;;;;;;;5023840;28;19917;-59
2022/05/03 15:08:02;;;;;;;;;;;;;;;;;;5022568;28;20223;-59
2022/05/03 15:10:31;;;;;;;;;;;;;;;;;;5025274;28;20299;-59
2022/05/03 15:12:58;;;;;;;;;;;;;;;;;;5031929;28;19927;-59
2022/05/03 15:15:24;;;;;;;;;;;;;;;;;;5022383;28;20588;-59
2022/05/03 15:17:50;;;;;;;;;;;;;;;;;;5023441;28;19918;-59
2022/05/03 15:20:16;;;;;;;;;;;;;;;;;;5024021;28;19925;-59
2022/05/03 15:25:26;;;;;;;;;;;;;;;;;;5018521;28;19928;-59
2022/05/03 15:27:51;;;;;;;;;;;;;;;;;;5024900;28;20440;-59
2022/05/03 15:30:17;;;;;;;;;;;;;;;;;;5026680;28;19916;-59
2022/05/03 15:32:42;;;;;;;;;;;;;;;;;;5023917;28;19921;-59
2022/05/03 15:35:08;;;;;;;;;;;;;;;;;;5026814;28;19980;-59
2022/05/03 15:37:33;;;;;;;;;;;;;;;;;;5027937;28;19921;-59
2022/05/03 15:39:59;;;;;;;;;;;;;;;;;;5028129;28;20023;-60
2022/05/03 15:42:26;;;;;;;;;;;;;;;;;;5026108;28;19925;-58
2022/05/03 15:44:53;;;;;;;;;;;;;;;;;;5025816;28;20505;-58
2022/05/03 15:47:21;;;;;;;;;;;;;;;;;;5028384;28;19923;-58
2022/05/03 15:49:46;;;;;;;;;;;;;;;;;;5028619;28;20272;-58
2022/05/03 15:52:12;;;;;;;;;;;;;;;;;;5025493;28;19924;-58
2022/05/03 15:54:38;;;;;;;;;;;;;;;;;;5026461;28;19917;-58
2022/05/03 15:57:04;;;;;;;;;;;;;;;;;;5028580;28;19924;-58
2022/05/03 15:59:29;;;;;;;;;;;;;;;;;;5026832;28;19917;-58
2022/05/03 16:01:55;;;;;;;;;;;;;;;;;;5028335;28;19927;-58
2022/05/03 16:04:22;;;;;;;;;;;;;;;;;;5031077;28;20286;-52
2022/05/03 16:06:48;;;;;;;;;;;;;;;;;;5023861;28;19974;-54
2022/05/03 16:09:14;;;;;;;;;;;;;;;;;;5032954;28;20347;-54
2022/05/03 16:11:40;;;;;;;;;;;;;;;;;;5027973;28;19925;-54
2022/05/03 16:14:06;;;;;;;;;;;;;;;;;;5025105;28;19959;-58
2022/05/03 16:16:31;;;;;;;;;;;;;;;;;;5019980;28;19937;-58
2022/05/03 16:18:56;;;;;;;;;;;;;;;;;;5023515;28;19918;-58
2022/05/03 16:21:21;;;;;;;;;;;;;;;;;;5027686;28;19917;-59
2022/05/03 16:23:47;;;;;;;;;;;;;;;;;;5030357;28;19913;-58
2022/05/03 16:26:12;;;;;;;;;;;;;;;;;;5028837;28;19917;-58
2022/05/03 16:28:37;;;;;;;;;;;;;;;;;;5027501;28;19932;-58
2022/05/03 16:31:07;;;;;;;;;;;;;;;;;;5027521;28;19924;-58
2022/05/03 16:33:33;;;;;;;;;;;;;;;;;;5032170;28;19940;-57
2022/05/03 16:42:08;;;;;;;;;;;;;;;;;;5027911;28;20497;-58
2022/05/03 16:44:11;;;;;;;;;;;;;;;;;;5028183;28;20350;-59
2022/05/03 16:46:37;;;;;;;;;;;;;;;;;;5031456;28;19956;-59
2022/05/03 16:49:04;;;;;;;;;;;;;;;;;;5035681;28;20362;-58
2022/05/03 16:51:29;;;;;;;;;;;;;;;;;;5029935;28;20379;-58
2022/05/03 16:53:55;;;;;;;;;;;;;;;;;;5024707;28;19917;-58
2022/05/03 16:56:20;;;;;;;;;;;;;;;;;;5027569;28;19917;-61
2022/05/03 16:58:45;;;;;;;;;;;;;;;;;;5027606;28;19913;-61
2022/05/03 17:01:11;;;;;;;;;;;;;;;;;;5025987;28;19917;-61
2022/05/03 17:03:36;;;;;;;;;;;;;;;;;;5027991;28;19966;-61
2022/05/03 17:06:02;;;;;;;;;;;;;;;;;;5025721;28;19970;-61
2022/05/03 17:08:27;;;;;;;;;;;;;;;;;;5023405;28;20290;-62
2022/05/03 17:10:53;;;;;;;;;;;;;;;;;;5024018;28;19917;-64
2022/05/03 17:13:18;;;;;;;;;;;;;;;;;;5024179;28;20298;-62
2022/05/03 17:15:44;;;;;;;;;;;;;;;;;;5023283;28;19921;-61
2022/05/03 17:18:09;;;;;;;;;;;;;;;;;;5016762;28;19924;-62
2022/05/03 17:20:34;;;;;;;;;;;;;;;;;;5026115;28;19917;-62
2022/05/03 17:23:00;;;;;;;;;;;;;;;;;;5028800;28;19927;-59
2022/05/03 17:25:27;;;;;;;;;;;;;;;;;;5025420;28;19929;-58
2022/05/03 17:27:52;;;;;;;;;;;;;;;;;;5028863;28;19923;-58
2022/05/03 17:30:18;;;;;;;;;;;;;;;;;;5027256;28;19917;-59
2022/05/03 17:32:43;;;;;;;;;;;;;;;;;;5024821;28;19921;-59
2022/05/03 17:35:09;;;;;;;;;;;;;;;;;;5024401;28;20424;-58
2022/05/03 17:37:34;;;;;;;;;;;;;;;;;;5024684;28;19918;-59
2022/05/03 17:40:00;;;;;;;;;;;;;;;;;;5026963;28;19925;-58
2022/05/03 17:42:25;;;;;;;;;;;;;;;;;;5026050;28;20142;-58
2022/05/03 17:44:51;;;;;;;;;;;;;;;;;;5023611;28;19917;-59